sensor_id;sensor_type;location;lat;lon;timestamp;P1;durP1;ratioP1;P2;durP2;ratioP2
24008;SDS011;12217;50.792;4.372;2023-01-16T00:00:49;6.03;;;1.50;;
24008;SDS011;12217;50.792;4.372;2023-01-16T00:03:15;3.80;;;1.40;;
24008;SDS011;12217;50.792;4.372;2023-01-16T00:05:41;6.43;;;1.67;;
24008;SDS011;12217;50.792;4.372;2023-01-16T00:08:07;5.13;;;1.35;;
24008;SDS011;12217;50.792;4.372;2023-01-16T00:10:33;3.78;;;1.30;;
24008;SDS011;12217;50.792;4.372;2023-01-16T00:12:58;2.97;;;1.13;;
24008;SDS011;12217;50.792;4.372;2023-01-16T00:15:24;3.38;;;1.33;;
24008;SDS011;12217;50.792;4.372;2023-01-16T00:17:49;8.30;;;1.27;;
24008;SDS011;12217;50.792;4.372;2023-01-16T00:20:15;4.75;;;1.27;;
24008;SDS011;12217;50.792;4.372;2023-01-16T00:22:41;3.45;;;1.33;;
24008;SDS011;12217;50.792;4.372;2023-01-16T00:25:07;6.80;;;1.20;;
24008;SDS011;12217;50.792;4.372;2023-01-16T00:27:33;6.75;;;1.42;;
24008;SDS011;12217;50.792;4.372;2023-01-16T00:29:59;3.35;;;1.30;;
24008;SDS011;12217;50.792;4.372;2023-01-16T00:32:25;4.25;;;1.38;;
24008;SDS011;12217;50.792;4.372;2023-01-16T00:34:50;5.20;;;1.38;;
24008;SDS011;12217;50.792;4.372;2023-01-16T00:37:16;3.97;;;1.70;;
24008;SDS011;12217;50.792;4.372;2023-01-16T00:39:41;4.80;;;1.35;;
24008;SDS011;12217;50.792;4.372;2023-01-16T00:42:07;6.78;;;2.10;;
24008;SDS011;12217;50.792;4.372;2023-01-16T00:44:33;7.55;;;1.45;;
24008;SDS011;12217;50.792;4.372;2023-01-16T00:46:59;4.53;;;1.63;;
24008;SDS011;12217;50.792;4.372;2023-01-16T00:49:24;4.32;;;1.40;;
24008;SDS011;12217;50.792;4.372;2023-01-16T00:51:50;5.70;;;1.35;;
24008;SDS011;12217;50.792;4.372;2023-01-16T00:54:15;4.43;;;1.65;;
24008;SDS011;12217;50.792;4.372;2023-01-16T00:56:41;4.20;;;1.30;;
24008;SDS011;12217;50.792;4.372;2023-01-16T00:59:07;3.97;;;1.30;;
24008;SDS011;12217;50.792;4.372;2023-01-16T01:01:32;5.15;;;1.67;;
24008;SDS011;12217;50.792;4.372;2023-01-16T01:03:58;3.33;;;1.30;;
24008;SDS011;12217;50.792;4.372;2023-01-16T01:06:24;6.00;;;1.63;;
24008;SDS011;12217;50.792;4.372;2023-01-16T01:08:50;4.88;;;1.40;;
24008;SDS011;12217;50.792;4.372;2023-01-16T01:11:15;8.35;;;1.80;;
24008;SDS011;12217;50.792;4.372;2023-01-16T01:13:42;6.38;;;1.83;;
24008;SDS011;12217;50.792;4.372;2023-01-16T01:16:08;4.97;;;1.70;;
24008;SDS011;12217;50.792;4.372;2023-01-16T01:18:35;5.78;;;1.80;;
24008;SDS011;12217;50.792;4.372;2023-01-16T01:21:01;6.55;;;2.00;;
24008;SDS011;12217;50.792;4.372;2023-01-16T01:23:26;8.80;;;2.00;;
24008;SDS011;12217;50.792;4.372;2023-01-16T01:25:52;4.05;;;2.25;;
24008;SDS011;12217;50.792;4.372;2023-01-16T01:28:18;7.45;;;2.28;;
24008;SDS011;12217;50.792;4.372;2023-01-16T01:30:44;10.73;;;2.72;;
24008;SDS011;12217;50.792;4.372;2023-01-16T01:33:10;10.70;;;3.08;;
24008;SDS011;12217;50.792;4.372;2023-01-16T01:35:36;7.55;;;2.45;;
24008;SDS011;12217;50.792;4.372;2023-01-16T01:38:02;10.13;;;2.63;;
24008;SDS011;12217;50.792;4.372;2023-01-16T01:40:27;9.88;;;2.17;;
24008;SDS011;12217;50.792;4.372;2023-01-16T01:42:53;8.27;;;2.58;;
24008;SDS011;12217;50.792;4.372;2023-01-16T01:45:27;14.32;;;3.10;;
24008;SDS011;12217;50.792;4.372;2023-01-16T01:51:00;9.73;;;2.63;;
24008;SDS011;12217;50.792;4.372;2023-01-16T01:53:36;9.35;;;2.47;;
24008;SDS011;12217;50.792;4.372;2023-01-16T01:56:08;14.32;;;2.50;;
24008;SDS011;12217;50.792;4.372;2023-01-16T01:58:39;9.40;;;2.40;;
24008;SDS011;12217;50.792;4.372;2023-01-16T02:01:06;8.07;;;2.20;;
24008;SDS011;12217;50.792;4.372;2023-01-16T02:03:42;7.07;;;1.98;;
24008;SDS011;12217;50.792;4.372;2023-01-16T02:06:25;10.13;;;2.35;;
24008;SDS011;12217;50.792;4.372;2023-01-16T02:09:01;9.70;;;2.30;;
24008;SDS011;12217;50.792;4.372;2023-01-16T02:11:34;8.43;;;2.45;;
24008;SDS011;12217;50.792;4.372;2023-01-16T02:14:14;14.32;;;2.50;;
24008;SDS011;12217;50.792;4.372;2023-01-16T02:16:41;9.15;;;2.10;;
24008;SDS011;12217;50.792;4.372;2023-01-16T02:30:08;6.82;;;2.08;;
24008;SDS011;12217;50.792;4.372;2023-01-16T02:33:04;7.30;;;1.90;;
24008;SDS011;12217;50.792;4.372;2023-01-16T02:44:23;8.73;;;2.05;;
24008;SDS011;12217;50.792;4.372;2023-01-16T02:52:46;9.32;;;2.08;;
24008;SDS011;12217;50.792;4.372;2023-01-16T02:55:20;6.53;;;1.95;;
24008;SDS011;12217;50.792;4.372;2023-01-16T02:57:54;7.40;;;2.00;;
24008;SDS011;12217;50.792;4.372;2023-01-16T03:00:24;8.00;;;1.85;;
24008;SDS011;12217;50.792;4.372;2023-01-16T03:02:50;9.63;;;1.65;;
24008;SDS011;12217;50.792;4.372;2023-01-16T03:05:16;6.25;;;1.73;;
24008;SDS011;12217;50.792;4.372;2023-01-16T03:10:52;8.88;;;1.80;;
24008;SDS011;12217;50.792;4.372;2023-01-16T03:13:49;9.77;;;1.88;;
24008;SDS011;12217;50.792;4.372;2023-01-16T03:22:30;7.90;;;1.90;;
24008;SDS011;12217;50.792;4.372;2023-01-16T03:30:47;6.57;;;1.50;;
24008;SDS011;12217;50.792;4.372;2023-01-16T03:35:58;9.10;;;1.80;;
24008;SDS011;12217;50.792;4.372;2023-01-16T03:38:29;8.82;;;2.05;;
24008;SDS011;12217;50.792;4.372;2023-01-16T03:40:56;4.00;;;1.50;;
24008;SDS011;12217;50.792;4.372;2023-01-16T03:43:27;9.10;;;1.85;;
24008;SDS011;12217;50.792;4.372;2023-01-16T03:51:33;5.93;;;1.50;;
24008;SDS011;12217;50.792;4.372;2023-01-16T03:57:04;11.52;;;1.67;;
24008;SDS011;12217;50.792;4.372;2023-01-16T03:59:52;7.30;;;1.70;;
24008;SDS011;12217;50.792;4.372;2023-01-16T04:04:49;4.82;;;1.50;;
24008;SDS011;12217;50.792;4.372;2023-01-16T04:07:39;5.30;;;1.38;;
24008;SDS011;12217;50.792;4.372;2023-01-16T04:10:10;9.90;;;1.85;;
24008;SDS011;12217;50.792;4.372;2023-01-16T04:12:44;5.78;;;1.15;;
24008;SDS011;12217;50.792;4.372;2023-01-16T04:15:14;8.45;;;1.65;;
24008;SDS011;12217;50.792;4.372;2023-01-16T04:17:42;9.15;;;1.70;;
24008;SDS011;12217;50.792;4.372;2023-01-16T04:20:08;4.43;;;1.40;;
24008;SDS011;12217;50.792;4.372;2023-01-16T04:22:35;5.75;;;1.30;;
24008;SDS011;12217;50.792;4.372;2023-01-16T04:25:02;3.65;;;1.35;;
24008;SDS011;12217;50.792;4.372;2023-01-16T04:27:30;6.10;;;1.60;;
24008;SDS011;12217;50.792;4.372;2023-01-16T04:29:55;10.50;;;1.73;;
24008;SDS011;12217;50.792;4.372;2023-01-16T04:32:21;6.53;;;1.63;;
24008;SDS011;12217;50.792;4.372;2023-01-16T04:34:47;7.82;;;1.40;;
24008;SDS011;12217;50.792;4.372;2023-01-16T04:37:13;6.40;;;1.50;;
24008;SDS011;12217;50.792;4.372;2023-01-16T04:39:40;6.57;;;1.50;;
24008;SDS011;12217;50.792;4.372;2023-01-16T04:42:06;8.00;;;1.40;;
24008;SDS011;12217;50.792;4.372;2023-01-16T04:44:33;6.65;;;1.33;;
24008;SDS011;12217;50.792;4.372;2023-01-16T04:46:58;6.10;;;1.20;;
24008;SDS011;12217;50.792;4.372;2023-01-16T04:49:24;9.02;;;1.45;;
24008;SDS011;12217;50.792;4.372;2023-01-16T04:51:50;10.45;;;1.85;;
24008;SDS011;12217;50.792;4.372;2023-01-16T04:54:16;9.35;;;2.20;;
24008;SDS011;12217;50.792;4.372;2023-01-16T04:56:43;5.20;;;1.50;;
24008;SDS011;12217;50.792;4.372;2023-01-16T04:59:09;8.02;;;1.38;;
24008;SDS011;12217;50.792;4.372;2023-01-16T05:01:35;8.75;;;1.75;;
24008;SDS011;12217;50.792;4.372;2023-01-16T05:04:03;8.90;;;1.70;;
24008;SDS011;12217;50.792;4.372;2023-01-16T05:06:29;9.07;;;1.30;;
24008;SDS011;12217;50.792;4.372;2023-01-16T05:08:55;5.90;;;1.38;;
24008;SDS011;12217;50.792;4.372;2023-01-16T05:11:21;7.20;;;1.40;;
24008;SDS011;12217;50.792;4.372;2023-01-16T05:13:47;7.38;;;1.63;;
24008;SDS011;12217;50.792;4.372;2023-01-16T05:16:12;7.57;;;1.25;;
24008;SDS011;12217;50.792;4.372;2023-01-16T05:18:38;6.15;;;1.20;;
24008;SDS011;12217;50.792;4.372;2023-01-16T05:21:03;7.60;;;1.15;;
24008;SDS011;12217;50.792;4.372;2023-01-16T05:23:30;5.72;;;1.35;;
24008;SDS011;12217;50.792;4.372;2023-01-16T05:25:58;6.65;;;1.40;;
24008;SDS011;12217;50.792;4.372;2023-01-16T05:28:24;5.05;;;1.17;;
24008;SDS011;12217;50.792;4.372;2023-01-16T05:30:50;8.02;;;1.13;;
24008;SDS011;12217;50.792;4.372;2023-01-16T05:33:16;7.47;;;1.80;;
24008;SDS011;12217;50.792;4.372;2023-01-16T05:35:42;6.72;;;1.38;;
24008;SDS011;12217;50.792;4.372;2023-01-16T05:38:07;4.22;;;1.35;;
24008;SDS011;12217;50.792;4.372;2023-01-16T05:40:33;6.10;;;1.52;;
24008;SDS011;12217;50.792;4.372;2023-01-16T05:42:59;2.55;;;0.85;;
24008;SDS011;12217;50.792;4.372;2023-01-16T05:45:24;3.95;;;1.08;;
24008;SDS011;12217;50.792;4.372;2023-01-16T05:47:50;2.75;;;0.70;;
24008;SDS011;12217;50.792;4.372;2023-01-16T05:50:15;2.95;;;0.95;;
24008;SDS011;12217;50.792;4.372;2023-01-16T05:52:41;2.75;;;0.82;;
24008;SDS011;12217;50.792;4.372;2023-01-16T05:55:07;3.20;;;0.77;;
24008;SDS011;12217;50.792;4.372;2023-01-16T05:57:32;0.80;;;0.80;;
24008;SDS011;12217;50.792;4.372;2023-01-16T05:59:58;1.67;;;0.85;;
24008;SDS011;12217;50.792;4.372;2023-01-16T06:02:23;2.28;;;0.80;;
24008;SDS011;12217;50.792;4.372;2023-01-16T06:04:49;2.30;;;0.80;;
24008;SDS011;12217;50.792;4.372;2023-01-16T06:07:15;5.03;;;1.20;;
24008;SDS011;12217;50.792;4.372;2023-01-16T06:09:41;2.25;;;1.20;;
24008;SDS011;12217;50.792;4.372;2023-01-16T06:12:06;2.45;;;0.90;;
24008;SDS011;12217;50.792;4.372;2023-01-16T06:14:33;2.92;;;0.80;;
24008;SDS011;12217;50.792;4.372;2023-01-16T06:16:59;1.23;;;0.60;;
24008;SDS011;12217;50.792;4.372;2023-01-16T06:19:24;1.98;;;0.85;;
24008;SDS011;12217;50.792;4.372;2023-01-16T06:21:50;0.93;;;0.70;;
24008;SDS011;12217;50.792;4.372;2023-01-16T06:24:15;1.70;;;1.00;;
24008;SDS011;12217;50.792;4.372;2023-01-16T06:26:41;0.77;;;0.68;;
24008;SDS011;12217;50.792;4.372;2023-01-16T06:29:08;2.97;;;0.73;;
24008;SDS011;12217;50.792;4.372;2023-01-16T06:31:34;1.02;;;0.68;;
24008;SDS011;12217;50.792;4.372;2023-01-16T06:34:00;2.28;;;0.73;;
24008;SDS011;12217;50.792;4.372;2023-01-16T06:36:25;2.72;;;0.70;;
24008;SDS011;12217;50.792;4.372;2023-01-16T06:38:51;2.78;;;0.70;;
24008;SDS011;12217;50.792;4.372;2023-01-16T06:41:16;1.08;;;0.70;;
24008;SDS011;12217;50.792;4.372;2023-01-16T06:43:42;2.05;;;1.20;;
24008;SDS011;12217;50.792;4.372;2023-01-16T06:46:08;1.70;;;0.68;;
24008;SDS011;12217;50.792;4.372;2023-01-16T06:48:33;1.30;;;0.60;;
24008;SDS011;12217;50.792;4.372;2023-01-16T06:50:59;1.25;;;0.50;;
24008;SDS011;12217;50.792;4.372;2023-01-16T06:53:25;0.75;;;0.75;;
24008;SDS011;12217;50.792;4.372;2023-01-16T06:55:51;2.70;;;0.63;;
24008;SDS011;12217;50.792;4.372;2023-01-16T06:58:17;0.63;;;0.60;;
24008;SDS011;12217;50.792;4.372;2023-01-16T07:00:42;2.75;;;0.80;;
24008;SDS011;12217;50.792;4.372;2023-01-16T07:03:09;0.65;;;0.60;;
24008;SDS011;12217;50.792;4.372;2023-01-16T07:05:35;0.90;;;0.60;;
24008;SDS011;12217;50.792;4.372;2023-01-16T07:08:02;0.60;;;0.60;;
24008;SDS011;12217;50.792;4.372;2023-01-16T07:10:28;1.33;;;0.70;;
24008;SDS011;12217;50.792;4.372;2023-01-16T07:12:54;0.82;;;0.73;;
24008;SDS011;12217;50.792;4.372;2023-01-16T07:15:20;0.60;;;0.60;;
24008;SDS011;12217;50.792;4.372;2023-01-16T07:18:05;0.95;;;0.50;;
24008;SDS011;12217;50.792;4.372;2023-01-16T07:20:54;0.60;;;0.60;;
24008;SDS011;12217;50.792;4.372;2023-01-16T07:23:41;0.68;;;0.68;;
24008;SDS011;12217;50.792;4.372;2023-01-16T07:26:09;1.50;;;0.70;;
24008;SDS011;12217;50.792;4.372;2023-01-16T07:28:37;1.27;;;0.60;;
24008;SDS011;12217;50.792;4.372;2023-01-16T07:31:03;0.57;;;0.55;;
24008;SDS011;12217;50.792;4.372;2023-01-16T07:33:30;1.15;;;0.70;;
24008;SDS011;12217;50.792;4.372;2023-01-16T07:35:56;0.90;;;0.52;;
24008;SDS011;12217;50.792;4.372;2023-01-16T07:38:21;0.77;;;0.73;;
24008;SDS011;12217;50.792;4.372;2023-01-16T07:40:47;0.50;;;0.50;;
24008;SDS011;12217;50.792;4.372;2023-01-16T07:43:13;0.57;;;0.50;;
24008;SDS011;12217;50.792;4.372;2023-01-16T07:45:38;0.60;;;0.60;;
24008;SDS011;12217;50.792;4.372;2023-01-16T07:48:04;0.60;;;0.60;;
24008;SDS011;12217;50.792;4.372;2023-01-16T07:50:30;0.50;;;0.50;;
24008;SDS011;12217;50.792;4.372;2023-01-16T07:52:55;0.60;;;0.60;;
24008;SDS011;12217;50.792;4.372;2023-01-16T07:55:21;1.90;;;0.80;;
24008;SDS011;12217;50.792;4.372;2023-01-16T07:57:48;0.90;;;0.70;;
24008;SDS011;12217;50.792;4.372;2023-01-16T08:00:14;1.13;;;0.52;;
24008;SDS011;12217;50.792;4.372;2023-01-16T08:02:40;2.25;;;0.85;;
24008;SDS011;12217;50.792;4.372;2023-01-16T08:05:06;0.85;;;0.70;;
24008;SDS011;12217;50.792;4.372;2023-01-16T08:07:32;0.80;;;0.70;;
24008;SDS011;12217;50.792;4.372;2023-01-16T08:09:58;0.70;;;0.70;;
24008;SDS011;12217;50.792;4.372;2023-01-16T08:12:23;1.80;;;0.82;;
24008;SDS011;12217;50.792;4.372;2023-01-16T08:14:49;0.70;;;0.70;;
24008;SDS011;12217;50.792;4.372;2023-01-16T08:17:15;1.52;;;0.90;;
24008;SDS011;12217;50.792;4.372;2023-01-16T08:19:40;1.15;;;0.70;;
24008;SDS011;12217;50.792;4.372;2023-01-16T08:22:06;1.80;;;0.80;;
24008;SDS011;12217;50.792;4.372;2023-01-16T08:24:32;1.10;;;1.00;;
24008;SDS011;12217;50.792;4.372;2023-01-16T08:26:57;1.10;;;0.90;;
24008;SDS011;12217;50.792;4.372;2023-01-16T08:29:23;0.70;;;0.70;;
24008;SDS011;12217;50.792;4.372;2023-01-16T08:31:49;0.90;;;0.82;;
24008;SDS011;12217;50.792;4.372;2023-01-16T08:34:15;1.88;;;0.90;;
24008;SDS011;12217;50.792;4.372;2023-01-16T08:36:41;2.00;;;0.90;;
24008;SDS011;12217;50.792;4.372;2023-01-16T08:39:08;1.52;;;1.00;;
24008;SDS011;12217;50.792;4.372;2023-01-16T08:41:35;2.75;;;1.00;;
24008;SDS011;12217;50.792;4.372;2023-01-16T08:44:19;2.20;;;0.90;;
24008;SDS011;12217;50.792;4.372;2023-01-16T08:47:05;1.75;;;0.82;;
24008;SDS011;12217;50.792;4.372;2023-01-16T08:49:57;1.75;;;1.00;;
24008;SDS011;12217;50.792;4.372;2023-01-16T08:52:42;2.35;;;1.15;;
24008;SDS011;12217;50.792;4.372;2023-01-16T08:55:08;1.20;;;1.10;;
24008;SDS011;12217;50.792;4.372;2023-01-16T08:57:34;3.78;;;0.90;;
24008;SDS011;12217;50.792;4.372;2023-01-16T09:00:00;4.40;;;0.95;;
24008;SDS011;12217;50.792;4.372;2023-01-16T09:02:26;2.10;;;0.93;;
24008;SDS011;12217;50.792;4.372;2023-01-16T09:04:52;4.25;;;1.00;;
24008;SDS011;12217;50.792;4.372;2023-01-16T09:07:19;3.35;;;1.17;;
24008;SDS011;12217;50.792;4.372;2023-01-16T09:09:45;5.60;;;1.30;;
24008;SDS011;12217;50.792;4.372;2023-01-16T09:12:11;4.55;;;1.05;;
24008;SDS011;12217;50.792;4.372;2023-01-16T09:14:56;3.17;;;1.10;;
24008;SDS011;12217;50.792;4.372;2023-01-16T09:17:22;1.58;;;1.10;;
24008;SDS011;12217;50.792;4.372;2023-01-16T09:19:49;3.63;;;1.20;;
24008;SDS011;12217;50.792;4.372;2023-01-16T09:22:14;2.15;;;1.20;;
24008;SDS011;12217;50.792;4.372;2023-01-16T09:24:40;1.80;;;1.05;;
24008;SDS011;12217;50.792;4.372;2023-01-16T09:27:06;0.98;;;0.90;;
24008;SDS011;12217;50.792;4.372;2023-01-16T09:29:31;2.17;;;0.82;;
24008;SDS011;12217;50.792;4.372;2023-01-16T09:31:57;1.25;;;1.00;;
24008;SDS011;12217;50.792;4.372;2023-01-16T09:34:24;0.90;;;0.90;;
24008;SDS011;12217;50.792;4.372;2023-01-16T09:36:50;2.13;;;0.90;;
24008;SDS011;12217;50.792;4.372;2023-01-16T09:39:16;2.17;;;0.90;;
24008;SDS011;12217;50.792;4.372;2023-01-16T09:41:51;1.85;;;0.90;;
24008;SDS011;12217;50.792;4.372;2023-01-16T09:44:44;1.25;;;0.77;;
24008;SDS011;12217;50.792;4.372;2023-01-16T09:47:13;1.90;;;1.00;;
24008;SDS011;12217;50.792;4.372;2023-01-16T09:49:47;2.35;;;1.08;;
24008;SDS011;12217;50.792;4.372;2023-01-16T09:52:22;1.90;;;0.80;;
24008;SDS011;12217;50.792;4.372;2023-01-16T09:55:24;2.63;;;0.80;;
24008;SDS011;12217;50.792;4.372;2023-01-16T09:58:16;1.35;;;0.70;;
24008;SDS011;12217;50.792;4.372;2023-01-16T10:01:00;1.67;;;0.80;;
24008;SDS011;12217;50.792;4.372;2023-01-16T10:03:27;1.17;;;0.88;;
24008;SDS011;12217;50.792;4.372;2023-01-16T10:06:02;2.50;;;0.82;;
24008;SDS011;12217;50.792;4.372;2023-01-16T10:08:39;2.13;;;0.80;;
24008;SDS011;12217;50.792;4.372;2023-01-16T10:11:24;1.42;;;0.93;;
24008;SDS011;12217;50.792;4.372;2023-01-16T10:17:16;3.45;;;0.88;;
24008;SDS011;12217;50.792;4.372;2023-01-16T10:19:46;2.50;;;0.70;;
24008;SDS011;12217;50.792;4.372;2023-01-16T10:25:06;1.55;;;0.70;;
24008;SDS011;12217;50.792;4.372;2023-01-16T10:30:17;1.50;;;0.80;;
24008;SDS011;12217;50.792;4.372;2023-01-16T10:35:45;2.75;;;0.70;;
24008;SDS011;12217;50.792;4.372;2023-01-16T10:40:46;2.40;;;0.80;;
24008;SDS011;12217;50.792;4.372;2023-01-16T10:43:19;2.97;;;0.90;;
24008;SDS011;12217;50.792;4.372;2023-01-16T10:46:27;2.92;;;0.98;;
24008;SDS011;12217;50.792;4.372;2023-01-16T10:49:12;2.30;;;1.00;;
24008;SDS011;12217;50.792;4.372;2023-01-16T10:51:52;1.40;;;0.90;;
24008;SDS011;12217;50.792;4.372;2023-01-16T10:54:18;1.48;;;0.80;;
24008;SDS011;12217;50.792;4.372;2023-01-16T10:56:44;0.88;;;0.80;;
24008;SDS011;12217;50.792;4.372;2023-01-16T10:59:10;2.17;;;1.10;;
24008;SDS011;12217;50.792;4.372;2023-01-16T11:01:37;3.35;;;1.13;;
24008;SDS011;12217;50.792;4.372;2023-01-16T11:04:06;2.47;;;1.30;;
24008;SDS011;12217;50.792;4.372;2023-01-16T11:06:36;1.40;;;1.30;;
24008;SDS011;12217;50.792;4.372;2023-01-16T11:09:06;1.20;;;1.00;;
24008;SDS011;12217;50.792;4.372;2023-01-16T11:11:42;1.52;;;0.90;;
24008;SDS011;12217;50.792;4.372;2023-01-16T11:17:29;4.30;;;1.65;;
24008;SDS011;12217;50.792;4.372;2023-01-16T11:20:18;1.75;;;0.82;;
24008;SDS011;12217;50.792;4.372;2023-01-16T11:27:49;2.40;;;0.93;;
24008;SDS011;12217;50.792;4.372;2023-01-16T11:30:20;1.25;;;0.80;;
24008;SDS011;12217;50.792;4.372;2023-01-16T11:32:51;2.65;;;1.02;;
24008;SDS011;12217;50.792;4.372;2023-01-16T11:35:19;1.88;;;0.80;;
24008;SDS011;12217;50.792;4.372;2023-01-16T11:37:47;1.05;;;0.70;;
24008;SDS011;12217;50.792;4.372;2023-01-16T11:40:17;2.70;;;0.90;;
24008;SDS011;12217;50.792;4.372;2023-01-16T11:42:55;0.90;;;0.90;;
24008;SDS011;12217;50.792;4.372;2023-01-16T11:45:45;2.45;;;1.13;;
24008;SDS011;12217;50.792;4.372;2023-01-16T11:48:37;2.40;;;0.98;;
24008;SDS011;12217;50.792;4.372;2023-01-16T11:51:14;1.20;;;1.00;;
24008;SDS011;12217;50.792;4.372;2023-01-16T11:53:45;0.90;;;0.90;;
24008;SDS011;12217;50.792;4.372;2023-01-16T12:02:02;1.60;;;0.77;;
24008;SDS011;12217;50.792;4.372;2023-01-16T12:13:28;2.75;;;1.40;;
24008;SDS011;12217;50.792;4.372;2023-01-16T12:20:02;2.65;;;1.60;;
24008;SDS011;12217;50.792;4.372;2023-01-16T12:27:53;15.48;;;7.50;;
24008;SDS011;12217;50.792;4.372;2023-01-16T12:36:03;2.10;;;0.90;;
24008;SDS011;12217;50.792;4.372;2023-01-16T12:38:54;2.35;;;1.13;;
24008;SDS011;12217;50.792;4.372;2023-01-16T12:42:00;3.47;;;2.25;;
24008;SDS011;12217;50.792;4.372;2023-01-16T12:52:08;1.98;;;1.27;;
24008;SDS011;12217;50.792;4.372;2023-01-16T13:00:15;5.88;;;3.15;;
24008;SDS011;12217;50.792;4.372;2023-01-16T13:05:23;4.00;;;2.63;;
24008;SDS011;12217;50.792;4.372;2023-01-16T13:08:02;3.40;;;1.83;;
24008;SDS011;12217;50.792;4.372;2023-01-16T13:10:44;4.20;;;2.72;;
24008;SDS011;12217;50.792;4.372;2023-01-16T13:13:35;6.53;;;3.13;;
24008;SDS011;12217;50.792;4.372;2023-01-16T13:21:54;3.63;;;2.38;;
24008;SDS011;12217;50.792;4.372;2023-01-16T13:24:33;1.90;;;1.30;;
24008;SDS011;12217;50.792;4.372;2023-01-16T13:27:07;5.85;;;3.42;;
24008;SDS011;12217;50.792;4.372;2023-01-16T13:29:51;4.05;;;2.35;;
24008;SDS011;12217;50.792;4.372;2023-01-16T13:32:34;1.40;;;1.30;;
24008;SDS011;12217;50.792;4.372;2023-01-16T13:35:09;1.75;;;1.40;;
24008;SDS011;12217;50.792;4.372;2023-01-16T13:37:53;1.33;;;1.10;;
24008;SDS011;12217;50.792;4.372;2023-01-16T13:43:25;1.88;;;1.17;;
24008;SDS011;12217;50.792;4.372;2023-01-16T13:46:15;1.50;;;1.15;;
24008;SDS011;12217;50.792;4.372;2023-01-16T13:48:42;3.58;;;1.58;;
24008;SDS011;12217;50.792;4.372;2023-01-16T13:51:15;7.35;;;2.20;;
24008;SDS011;12217;50.792;4.372;2023-01-16T13:53:45;6.25;;;3.30;;
24008;SDS011;12217;50.792;4.372;2023-01-16T13:56:24;4.75;;;3.03;;
24008;SDS011;12217;50.792;4.372;2023-01-16T13:58:56;2.45;;;2.15;;
24008;SDS011;12217;50.792;4.372;2023-01-16T14:01:31;2.63;;;1.83;;
24008;SDS011;12217;50.792;4.372;2023-01-16T14:04:31;4.60;;;2.00;;
24008;SDS011;12217;50.792;4.372;2023-01-16T14:06:52;2.90;;;2.00;;
24008;SDS011;12217;50.792;4.372;2023-01-16T14:15:29;2.28;;;1.90;;
24008;SDS011;12217;50.792;4.372;2023-01-16T14:18:42;2.88;;;2.10;;
24008;SDS011;12217;50.792;4.372;2023-01-16T14:21:28;2.97;;;2.10;;
24008;SDS011;12217;50.792;4.372;2023-01-16T14:24:22;2.10;;;1.90;;
24008;SDS011;12217;50.792;4.372;2023-01-16T14:34:26;5.07;;;2.47;;
24008;SDS011;12217;50.792;4.372;2023-01-16T14:36:59;3.10;;;2.30;;
24008;SDS011;12217;50.792;4.372;2023-01-16T14:39:35;2.13;;;1.92;;
24008;SDS011;12217;50.792;4.372;2023-01-16T14:42:06;4.80;;;1.70;;
24008;SDS011;12217;50.792;4.372;2023-01-16T14:45:09;3.15;;;2.10;;
24008;SDS011;12217;50.792;4.372;2023-01-16T14:56:36;2.22;;;1.90;;
24008;SDS011;12217;50.792;4.372;2023-01-16T14:59:04;2.17;;;1.70;;
24008;SDS011;12217;50.792;4.372;2023-01-16T15:01:45;2.70;;;1.98;;
24008;SDS011;12217;50.792;4.372;2023-01-16T15:04:32;2.10;;;1.90;;
24008;SDS011;12217;50.792;4.372;2023-01-16T15:07:29;4.28;;;2.20;;
24008;SDS011;12217;50.792;4.372;2023-01-16T15:10:04;2.83;;;2.50;;
24008;SDS011;12217;50.792;4.372;2023-01-16T15:12:39;6.57;;;4.45;;
24008;SDS011;12217;50.792;4.372;2023-01-16T15:15:17;2.92;;;2.22;;
24008;SDS011;12217;50.792;4.372;2023-01-16T15:17:52;3.38;;;2.20;;
24008;SDS011;12217;50.792;4.372;2023-01-16T15:20:39;2.40;;;1.98;;
24008;SDS011;12217;50.792;4.372;2023-01-16T15:23:29;3.03;;;2.28;;
24008;SDS011;12217;50.792;4.372;2023-01-16T15:31:16;3.25;;;1.90;;
24008;SDS011;12217;50.792;4.372;2023-01-16T15:33:45;2.15;;;1.95;;
24008;SDS011;12217;50.792;4.372;2023-01-16T15:39:02;1.80;;;1.70;;
24008;SDS011;12217;50.792;4.372;2023-01-16T15:41:44;2.17;;;2.05;;
24008;SDS011;12217;50.792;4.372;2023-01-16T15:44:31;2.10;;;1.90;;
24008;SDS011;12217;50.792;4.372;2023-01-16T15:52:53;2.35;;;2.15;;
24008;SDS011;12217;50.792;4.372;2023-01-16T15:55:23;1.83;;;1.73;;
24008;SDS011;12217;50.792;4.372;2023-01-16T15:57:59;2.30;;;1.60;;
24008;SDS011;12217;50.792;4.372;2023-01-16T16:00:33;3.15;;;1.80;;
24008;SDS011;12217;50.792;4.372;2023-01-16T16:03:06;1.40;;;1.30;;
24008;SDS011;12217;50.792;4.372;2023-01-16T16:05:39;2.90;;;1.67;;
24008;SDS011;12217;50.792;4.372;2023-01-16T16:08:09;1.70;;;1.60;;
24008;SDS011;12217;50.792;4.372;2023-01-16T16:10:39;2.22;;;1.70;;
24008;SDS011;12217;50.792;4.372;2023-01-16T16:13:25;2.15;;;1.52;;
24008;SDS011;12217;50.792;4.372;2023-01-16T16:15:54;2.35;;;1.65;;
24008;SDS011;12217;50.792;4.372;2023-01-16T16:18:51;2.10;;;1.90;;
24008;SDS011;12217;50.792;4.372;2023-01-16T16:21:17;2.47;;;2.17;;
24008;SDS011;12217;50.792;4.372;2023-01-16T16:23:52;2.80;;;1.90;;
24008;SDS011;12217;50.792;4.372;2023-01-16T16:26:22;3.53;;;1.90;;
24008;SDS011;12217;50.792;4.372;2023-01-16T16:28:48;3.92;;;2.13;;
24008;SDS011;12217;50.792;4.372;2023-01-16T16:31:24;3.50;;;1.50;;
24008;SDS011;12217;50.792;4.372;2023-01-16T16:36:38;2.97;;;2.03;;
24008;SDS011;12217;50.792;4.372;2023-01-16T16:42:23;5.13;;;2.40;;
24008;SDS011;12217;50.792;4.372;2023-01-16T16:45:10;3.58;;;2.90;;
24008;SDS011;12217;50.792;4.372;2023-01-16T16:47:44;8.70;;;2.60;;
24008;SDS011;12217;50.792;4.372;2023-01-16T16:50:29;5.78;;;2.30;;
24008;SDS011;12217;50.792;4.372;2023-01-16T16:53:04;5.72;;;2.20;;
24008;SDS011;12217;50.792;4.372;2023-01-16T16:55:51;4.55;;;2.30;;
24008;SDS011;12217;50.792;4.372;2023-01-16T16:58:20;4.40;;;2.40;;
24008;SDS011;12217;50.792;4.372;2023-01-16T17:00:48;3.63;;;1.98;;
24008;SDS011;12217;50.792;4.372;2023-01-16T17:03:25;3.65;;;1.80;;
24008;SDS011;12217;50.792;4.372;2023-01-16T17:05:52;3.72;;;2.00;;
24008;SDS011;12217;50.792;4.372;2023-01-16T17:08:20;7.50;;;2.33;;
24008;SDS011;12217;50.792;4.372;2023-01-16T17:10:47;3.42;;;2.22;;
24008;SDS011;12217;50.792;4.372;2023-01-16T17:13:17;6.32;;;2.55;;
24008;SDS011;12217;50.792;4.372;2023-01-16T17:15:44;4.35;;;2.50;;
24008;SDS011;12217;50.792;4.372;2023-01-16T17:18:11;3.17;;;2.00;;
24008;SDS011;12217;50.792;4.372;2023-01-16T17:20:38;4.22;;;2.55;;
24008;SDS011;12217;50.792;4.372;2023-01-16T17:23:14;4.97;;;2.45;;
24008;SDS011;12217;50.792;4.372;2023-01-16T17:25:41;4.80;;;2.40;;
24008;SDS011;12217;50.792;4.372;2023-01-16T17:28:08;5.72;;;2.35;;
24008;SDS011;12217;50.792;4.372;2023-01-16T17:30:34;5.10;;;2.50;;
24008;SDS011;12217;50.792;4.372;2023-01-16T17:33:04;4.47;;;2.40;;
24008;SDS011;12217;50.792;4.372;2023-01-16T17:35:35;4.28;;;2.67;;
24008;SDS011;12217;50.792;4.372;2023-01-16T17:38:07;5.07;;;2.80;;
24008;SDS011;12217;50.792;4.372;2023-01-16T17:40:40;3.78;;;2.20;;
24008;SDS011;12217;50.792;4.372;2023-01-16T17:43:05;3.08;;;2.13;;
24008;SDS011;12217;50.792;4.372;2023-01-16T17:45:56;5.10;;;2.03;;
24008;SDS011;12217;50.792;4.372;2023-01-16T17:48:28;3.70;;;1.83;;
24008;SDS011;12217;50.792;4.372;2023-01-16T17:50:54;4.50;;;1.42;;
24008;SDS011;12217;50.792;4.372;2023-01-16T17:53:22;4.45;;;1.60;;
24008;SDS011;12217;50.792;4.372;2023-01-16T17:55:49;2.05;;;1.85;;
24008;SDS011;12217;50.792;4.372;2023-01-16T17:58:26;3.05;;;1.38;;
24008;SDS011;12217;50.792;4.372;2023-01-16T18:00:58;1.92;;;1.30;;
24008;SDS011;12217;50.792;4.372;2023-01-16T18:05:52;2.92;;;1.02;;
24008;SDS011;12217;50.792;4.372;2023-01-16T18:08:18;4.65;;;2.25;;
24008;SDS011;12217;50.792;4.372;2023-01-16T18:10:44;3.30;;;1.70;;